OAKBOPRN

Guest
Details From OAKB - Kabul Intl
To OPRN - Chaklala
Flight Number -
Tags Generated
Created
Modified
Stats Distance 202 nm / 373 km
Max Altitude 0 ft / 0 m
Waypoints 2
Social Downloads 1
Likes 0
Share VATSIM

Download

Looking for another format? Having issues loading an existing format? Contact us
Advertisement - Login to hide

Notes

Generated

Route

OAKB OPRN

ID Type Via Altitude Latitude Longitude Leg Dist Tot Dist Heading (true) Name
O OAKB APT - 0 ft / 0 m 34.57052˚ 69.19431˚ - 0 nm - -
O OPRN APT - 0 ft / 0 m 33.62378˚ 73.08317˚ 201 nm 201 nm 105° / 107° -

Altitude Profile

Advertisement - Login to hide

Weather


0- 5 10 15 20 25 30 35+ Temperature / ° C

Clouds and Precipitation
Forecast for 2017-12-14 06:00 UTC. Updated an hour ago

Ground ~20,000 ft ~40,000 ft Winds

OAKB

Details ICAO OAKB (KBL)
Name Kabul Intl
Region Afghanistan
Timezone Asia/Kabul (UTC+4.5)
Stats Elevation 5,877 ft / 1,791 m (AMSL)
Location 34.565875° 69.212289°
Runways 1
Magnetic Variation 3.164° E

METAR

OAKB 140150Z 09003KT 6000 FEW028 BKN180 M02/M03 Q1022 TEMPO 4000 BR RMK A3019 WHT WHT TEMPO GRN

Decode

TAF

TAF OAKB 132305Z 1400/1424 VRB02KT 6000 SCT017 BKN030 TEMPO 1400/1420 3500 -SN BR BKN014 OVC025 PROB40 TEMPO 1408/1416 13012KT 2000 SHSN FEW007 BKN012TCU PROB40 1420/1424 4000 BR FEW006 BKN010

Decode

Departure Runways

ID Width Length Bearing (true) Bearing (mag) Surface Threshold Offset Overrun Length
11 164 ft / 50 m 11,483 ft / 3,500 m 107.39° 104.23° Asphalt 0 ft / 0 m 144 ft / 44 m
29 164 ft / 50 m 11,483 ft / 3,500 m 287.41° 284.25° Asphalt 0 ft / 0 m 190 ft / 58 m

OPRN

Details ICAO OPRN (ISB)
Name CHAKLALA
Region Pakistan
Timezone Asia/Karachi (UTC+5.0)
Stats Elevation 1,668 ft / 508 m (AMSL)
Location 33.616768° 73.098812°
Runways 1
Magnetic Variation 2.613° E

METAR

OPRN 140100Z 00000KT 3500 BR NSC 05/03 Q1021.6/30.17

Decode

TAF

Not found

Destination Runways

ID Width Length Bearing (true) Bearing (mag) Surface Threshold Offset Overrun Length
12 150 ft / 46 m 10,795 ft / 3,290 m 118.28° 115.67° Asphalt 885 ft / 270 m 680 ft / 207 m
30 150 ft / 46 m 10,795 ft / 3,290 m 298.30° 295.69° Asphalt 885 ft / 270 m 740 ft / 226 m

Approach Navaids

Runway Type Ident Frequency Range Bearing (true) Bearing (mag) Slope Elevation
30 Localiser IRN 110.30 MHz 18 nm / 33 km 298.21° 295.60° - 1,656 ft / 505 m (AMSL)
30 Glidescope IRN 110.30 MHz 10 nm / 19 km 298.29° 295.68° 3.00° 1,707 ft / 520 m (AMSL)
30 DME IRN 110.30 MHz 18 nm / 33 km - - - 1,713 ft / 522 m (AMSL)

Popular Alternatives